sensor_id;sensor_type;location;lat;lon;timestamp;temperature;humidity
8824;DHT22;4448;50.904;4.694;2022-12-28T00:01:25;7.40;99.90
8824;DHT22;4448;50.904;4.694;2022-12-28T00:03:51;7.60;99.90
8824;DHT22;4448;50.904;4.694;2022-12-28T00:06:19;7.60;99.90
8824;DHT22;4448;50.904;4.694;2022-12-28T00:08:45;7.60;99.90
8824;DHT22;4448;50.904;4.694;2022-12-28T00:11:13;7.60;99.90
8824;DHT22;4448;50.904;4.694;2022-12-28T00:13:39;7.60;99.90
8824;DHT22;4448;50.904;4.694;2022-12-28T00:16:08;7.60;99.90
8824;DHT22;4448;50.904;4.694;2022-12-28T00:18:34;7.70;99.90
8824;DHT22;4448;50.904;4.694;2022-12-28T00:21:01;7.70;99.90
8824;DHT22;4448;50.904;4.694;2022-12-28T00:23:27;7.70;99.90
8824;DHT22;4448;50.904;4.694;2022-12-28T00:25:53;7.60;99.90
8824;DHT22;4448;50.904;4.694;2022-12-28T00:28:19;7.70;99.90
8824;DHT22;4448;50.904;4.694;2022-12-28T00:30:45;7.70;99.90
8824;DHT22;4448;50.904;4.694;2022-12-28T00:33:10;7.80;99.90
8824;DHT22;4448;50.904;4.694;2022-12-28T00:35:36;7.80;99.90
8824;DHT22;4448;50.904;4.694;2022-12-28T00:38:01;7.80;99.90
8824;DHT22;4448;50.904;4.694;2022-12-28T00:40:27;7.80;99.90
8824;DHT22;4448;50.904;4.694;2022-12-28T00:42:53;7.90;99.90
8824;DHT22;4448;50.904;4.694;2022-12-28T00:45:18;7.90;99.90
8824;DHT22;4448;50.904;4.694;2022-12-28T00:47:44;7.90;99.90
8824;DHT22;4448;50.904;4.694;2022-12-28T00:50:09;7.90;99.90
8824;DHT22;4448;50.904;4.694;2022-12-28T00:52:35;8.00;99.90
8824;DHT22;4448;50.904;4.694;2022-12-28T00:55:01;8.00;99.90
8824;DHT22;4448;50.904;4.694;2022-12-28T00:57:26;8.00;99.90
8824;DHT22;4448;50.904;4.694;2022-12-28T00:59:52;7.90;99.90
8824;DHT22;4448;50.904;4.694;2022-12-28T01:02:18;8.00;99.90
8824;DHT22;4448;50.904;4.694;2022-12-28T01:04:43;8.00;99.90
8824;DHT22;4448;50.904;4.694;2022-12-28T01:07:09;8.00;99.90
8824;DHT22;4448;50.904;4.694;2022-12-28T01:09:35;8.00;99.90
8824;DHT22;4448;50.904;4.694;2022-12-28T01:12:01;8.00;99.90
8824;DHT22;4448;50.904;4.694;2022-12-28T01:14:27;8.00;99.90
8824;DHT22;4448;50.904;4.694;2022-12-28T01:16:52;8.10;99.90
8824;DHT22;4448;50.904;4.694;2022-12-28T01:19:21;8.10;99.90
8824;DHT22;4448;50.904;4.694;2022-12-28T01:21:48;8.10;99.90
8824;DHT22;4448;50.904;4.694;2022-12-28T01:24:14;8.10;99.90
8824;DHT22;4448;50.904;4.694;2022-12-28T01:26:40;8.10;99.90
8824;DHT22;4448;50.904;4.694;2022-12-28T01:29:06;8.20;99.90
8824;DHT22;4448;50.904;4.694;2022-12-28T01:31:32;8.20;99.90
8824;DHT22;4448;50.904;4.694;2022-12-28T01:33:58;8.20;99.90
8824;DHT22;4448;50.904;4.694;2022-12-28T01:36:26;8.20;99.90
8824;DHT22;4448;50.904;4.694;2022-12-28T01:38:54;8.10;99.90
8824;DHT22;4448;50.904;4.694;2022-12-28T01:41:21;8.20;99.90
8824;DHT22;4448;50.904;4.694;2022-12-28T01:46:49;8.30;99.90
8824;DHT22;4448;50.904;4.694;2022-12-28T01:49:22;8.30;99.90
8824;DHT22;4448;50.904;4.694;2022-12-28T01:54:22;8.30;99.90
8824;DHT22;4448;50.904;4.694;2022-12-28T01:56:49;8.40;99.90
8824;DHT22;4448;50.904;4.694;2022-12-28T01:59:17;8.30;99.90
8824;DHT22;4448;50.904;4.694;2022-12-28T02:01:44;8.40;99.90
8824;DHT22;4448;50.904;4.694;2022-12-28T02:04:10;8.30;99.90
8824;DHT22;4448;50.904;4.694;2022-12-28T02:06:36;8.40;99.90
8824;DHT22;4448;50.904;4.694;2022-12-28T02:09:05;8.40;99.90
8824;DHT22;4448;50.904;4.694;2022-12-28T02:11:34;8.40;99.90
8824;DHT22;4448;50.904;4.694;2022-12-28T02:14:00;8.40;99.90
8824;DHT22;4448;50.904;4.694;2022-12-28T02:16:27;8.30;99.90
8824;DHT22;4448;50.904;4.694;2022-12-28T02:18:53;8.30;99.90
8824;DHT22;4448;50.904;4.694;2022-12-28T02:26:32;8.20;99.90
8824;DHT22;4448;50.904;4.694;2022-12-28T02:33:05;8.10;99.90
8824;DHT22;4448;50.904;4.694;2022-12-28T02:35:30;8.10;99.90
8824;DHT22;4448;50.904;4.694;2022-12-28T02:41:24;8.10;99.90
8824;DHT22;4448;50.904;4.694;2022-12-28T02:43:52;8.20;99.90
8824;DHT22;4448;50.904;4.694;2022-12-28T02:46:37;8.30;99.90
8824;DHT22;4448;50.904;4.694;2022-12-28T02:49:23;8.30;99.90
8824;DHT22;4448;50.904;4.694;2022-12-28T03:06:59;8.50;99.90
8824;DHT22;4448;50.904;4.694;2022-12-28T03:15:29;8.30;99.90
8824;DHT22;4448;50.904;4.694;2022-12-28T03:18:11;8.30;99.90
8824;DHT22;4448;50.904;4.694;2022-12-28T03:21:02;8.30;99.90
8824;DHT22;4448;50.904;4.694;2022-12-28T03:23:48;8.30;99.90
8824;DHT22;4448;50.904;4.694;2022-12-28T03:26:37;8.30;99.90
8824;DHT22;4448;50.904;4.694;2022-12-28T03:29:25;8.20;99.90
8824;DHT22;4448;50.904;4.694;2022-12-28T03:32:12;8.20;99.90
8824;DHT22;4448;50.904;4.694;2022-12-28T03:34:38;8.20;99.90
8824;DHT22;4448;50.904;4.694;2022-12-28T03:37:12;8.30;99.90
8824;DHT22;4448;50.904;4.694;2022-12-28T03:39:46;8.20;99.90
8824;DHT22;4448;50.904;4.694;2022-12-28T03:42:36;8.30;99.90
8824;DHT22;4448;50.904;4.694;2022-12-28T03:48:11;8.30;99.90
8824;DHT22;4448;50.904;4.694;2022-12-28T03:50:39;8.40;99.90
8824;DHT22;4448;50.904;4.694;2022-12-28T03:53:07;8.40;99.90
8824;DHT22;4448;50.904;4.694;2022-12-28T03:55:33;8.50;99.90
8824;DHT22;4448;50.904;4.694;2022-12-28T03:58:00;8.50;99.90
8824;DHT22;4448;50.904;4.694;2022-12-28T04:00:25;8.50;99.90
8824;DHT22;4448;50.904;4.694;2022-12-28T04:02:51;8.50;99.90
8824;DHT22;4448;50.904;4.694;2022-12-28T04:05:16;8.40;99.90
8824;DHT22;4448;50.904;4.694;2022-12-28T04:07:42;8.40;99.90
8824;DHT22;4448;50.904;4.694;2022-12-28T04:10:08;8.40;99.90
8824;DHT22;4448;50.904;4.694;2022-12-28T04:12:34;8.40;99.90
8824;DHT22;4448;50.904;4.694;2022-12-28T04:15:00;8.40;99.90
8824;DHT22;4448;50.904;4.694;2022-12-28T04:17:27;8.40;99.90
8824;DHT22;4448;50.904;4.694;2022-12-28T04:19:53;8.30;99.90
8824;DHT22;4448;50.904;4.694;2022-12-28T04:22:19;8.30;99.90
8824;DHT22;4448;50.904;4.694;2022-12-28T04:24:44;8.30;99.90
8824;DHT22;4448;50.904;4.694;2022-12-28T04:27:10;8.30;99.90
8824;DHT22;4448;50.904;4.694;2022-12-28T04:29:36;8.20;99.90
8824;DHT22;4448;50.904;4.694;2022-12-28T04:32:01;8.20;99.90
8824;DHT22;4448;50.904;4.694;2022-12-28T04:34:27;8.20;99.90
8824;DHT22;4448;50.904;4.694;2022-12-28T04:36:53;8.20;99.90
8824;DHT22;4448;50.904;4.694;2022-12-28T04:39:18;8.20;99.90
8824;DHT22;4448;50.904;4.694;2022-12-28T04:41:44;8.20;99.90
8824;DHT22;4448;50.904;4.694;2022-12-28T04:44:10;8.20;99.90
8824;DHT22;4448;50.904;4.694;2022-12-28T04:46:35;8.20;99.90
8824;DHT22;4448;50.904;4.694;2022-12-28T04:49:01;8.20;99.90
8824;DHT22;4448;50.904;4.694;2022-12-28T04:51:27;8.20;99.90
8824;DHT22;4448;50.904;4.694;2022-12-28T04:53:54;8.20;99.90
8824;DHT22;4448;50.904;4.694;2022-12-28T04:56:22;8.30;99.90
8824;DHT22;4448;50.904;4.694;2022-12-28T04:58:52;8.30;99.90
8824;DHT22;4448;50.904;4.694;2022-12-28T05:01:18;8.20;99.90
8824;DHT22;4448;50.904;4.694;2022-12-28T05:03:45;8.20;99.90
8824;DHT22;4448;50.904;4.694;2022-12-28T05:06:17;8.20;99.90
8824;DHT22;4448;50.904;4.694;2022-12-28T05:08:44;8.20;99.90
8824;DHT22;4448;50.904;4.694;2022-12-28T05:11:15;8.20;99.90
8824;DHT22;4448;50.904;4.694;2022-12-28T05:13:41;8.30;99.90
8824;DHT22;4448;50.904;4.694;2022-12-28T05:16:10;8.30;99.90
8824;DHT22;4448;50.904;4.694;2022-12-28T05:18:36;8.30;99.90
8824;DHT22;4448;50.904;4.694;2022-12-28T05:23:33;8.30;99.90
8824;DHT22;4448;50.904;4.694;2022-12-28T05:25:59;8.30;99.90
8824;DHT22;4448;50.904;4.694;2022-12-28T05:28:26;8.30;99.90
8824;DHT22;4448;50.904;4.694;2022-12-28T05:30:52;8.30;99.90
8824;DHT22;4448;50.904;4.694;2022-12-28T05:33:22;8.30;99.90
8824;DHT22;4448;50.904;4.694;2022-12-28T05:35:48;8.30;99.90
8824;DHT22;4448;50.904;4.694;2022-12-28T05:38:13;8.40;99.90
8824;DHT22;4448;50.904;4.694;2022-12-28T05:40:39;8.40;99.90
8824;DHT22;4448;50.904;4.694;2022-12-28T05:43:05;8.40;99.90
8824;DHT22;4448;50.904;4.694;2022-12-28T05:45:30;8.40;99.90
8824;DHT22;4448;50.904;4.694;2022-12-28T05:47:56;8.40;99.90
8824;DHT22;4448;50.904;4.694;2022-12-28T05:50:21;8.40;99.90
8824;DHT22;4448;50.904;4.694;2022-12-28T05:52:47;8.40;99.90
8824;DHT22;4448;50.904;4.694;2022-12-28T05:55:13;8.40;99.90
8824;DHT22;4448;50.904;4.694;2022-12-28T05:57:38;8.30;99.90
8824;DHT22;4448;50.904;4.694;2022-12-28T06:00:04;8.40;99.90
8824;DHT22;4448;50.904;4.694;2022-12-28T06:02:30;8.40;99.90
8824;DHT22;4448;50.904;4.694;2022-12-28T06:04:56;8.30;99.90
8824;DHT22;4448;50.904;4.694;2022-12-28T06:07:22;8.40;99.90
8824;DHT22;4448;50.904;4.694;2022-12-28T06:09:47;8.50;99.90
8824;DHT22;4448;50.904;4.694;2022-12-28T06:12:13;8.50;99.90
8824;DHT22;4448;50.904;4.694;2022-12-28T06:14:39;8.50;99.90
8824;DHT22;4448;50.904;4.694;2022-12-28T06:17:04;8.50;99.90
8824;DHT22;4448;50.904;4.694;2022-12-28T06:19:30;8.50;99.90
8824;DHT22;4448;50.904;4.694;2022-12-28T06:21:56;8.40;99.90
8824;DHT22;4448;50.904;4.694;2022-12-28T06:24:21;8.50;99.90
8824;DHT22;4448;50.904;4.694;2022-12-28T06:26:47;8.50;99.90
8824;DHT22;4448;50.904;4.694;2022-12-28T06:29:13;8.40;99.90
8824;DHT22;4448;50.904;4.694;2022-12-28T06:31:42;8.50;99.90
8824;DHT22;4448;50.904;4.694;2022-12-28T06:34:08;8.50;99.90
8824;DHT22;4448;50.904;4.694;2022-12-28T06:36:42;8.60;99.90
8824;DHT22;4448;50.904;4.694;2022-12-28T06:39:11;8.50;99.90
8824;DHT22;4448;50.904;4.694;2022-12-28T06:41:37;8.50;99.90
8824;DHT22;4448;50.904;4.694;2022-12-28T06:44:07;8.50;99.90
8824;DHT22;4448;50.904;4.694;2022-12-28T06:46:34;8.50;99.90
8824;DHT22;4448;50.904;4.694;2022-12-28T06:49:01;8.40;99.90
8824;DHT22;4448;50.904;4.694;2022-12-28T06:51:28;8.50;99.90
8824;DHT22;4448;50.904;4.694;2022-12-28T06:53:54;8.50;99.90
8824;DHT22;4448;50.904;4.694;2022-12-28T06:56:23;8.50;99.90
8824;DHT22;4448;50.904;4.694;2022-12-28T06:58:49;8.60;99.90
8824;DHT22;4448;50.904;4.694;2022-12-28T07:01:18;8.60;99.90
8824;DHT22;4448;50.904;4.694;2022-12-28T07:03:44;8.60;99.90
8824;DHT22;4448;50.904;4.694;2022-12-28T07:06:11;8.60;99.90
8824;DHT22;4448;50.904;4.694;2022-12-28T07:08:38;8.60;99.90
8824;DHT22;4448;50.904;4.694;2022-12-28T07:11:12;8.60;99.90
8824;DHT22;4448;50.904;4.694;2022-12-28T07:13:39;8.60;99.90
8824;DHT22;4448;50.904;4.694;2022-12-28T07:16:08;8.70;99.90
8824;DHT22;4448;50.904;4.694;2022-12-28T07:18:34;8.70;99.90
8824;DHT22;4448;50.904;4.694;2022-12-28T07:21:03;8.70;99.90
8824;DHT22;4448;50.904;4.694;2022-12-28T07:23:29;8.70;99.90
8824;DHT22;4448;50.904;4.694;2022-12-28T07:26:08;8.80;99.90
8824;DHT22;4448;50.904;4.694;2022-12-28T07:28:48;8.80;99.90
8824;DHT22;4448;50.904;4.694;2022-12-28T07:31:18;8.80;99.90
8824;DHT22;4448;50.904;4.694;2022-12-28T07:33:45;8.90;99.90
8824;DHT22;4448;50.904;4.694;2022-12-28T07:36:14;8.90;99.90
8824;DHT22;4448;50.904;4.694;2022-12-28T07:38:40;8.90;99.90
8824;DHT22;4448;50.904;4.694;2022-12-28T07:41:08;8.80;99.90
8824;DHT22;4448;50.904;4.694;2022-12-28T07:43:35;8.90;99.90
8824;DHT22;4448;50.904;4.694;2022-12-28T07:46:05;8.80;99.90
8824;DHT22;4448;50.904;4.694;2022-12-28T07:48:32;8.80;99.90
8824;DHT22;4448;50.904;4.694;2022-12-28T07:51:05;8.70;99.90
8824;DHT22;4448;50.904;4.694;2022-12-28T07:53:31;8.70;99.90
8824;DHT22;4448;50.904;4.694;2022-12-28T07:55:58;9.10;99.90
8824;DHT22;4448;50.904;4.694;2022-12-28T07:58:23;8.70;99.90
8824;DHT22;4448;50.904;4.694;2022-12-28T08:00:49;8.60;99.90
8824;DHT22;4448;50.904;4.694;2022-12-28T08:03:16;8.60;99.90
8824;DHT22;4448;50.904;4.694;2022-12-28T08:05:41;8.60;99.90
8824;DHT22;4448;50.904;4.694;2022-12-28T08:08:07;8.60;99.90
8824;DHT22;4448;50.904;4.694;2022-12-28T08:10:33;8.60;99.90
8824;DHT22;4448;50.904;4.694;2022-12-28T08:13:02;8.60;99.90
8824;DHT22;4448;50.904;4.694;2022-12-28T08:15:28;8.60;99.90
8824;DHT22;4448;50.904;4.694;2022-12-28T08:17:54;8.60;99.90
8824;DHT22;4448;50.904;4.694;2022-12-28T08:20:20;8.60;99.90
8824;DHT22;4448;50.904;4.694;2022-12-28T08:22:46;8.50;99.90
8824;DHT22;4448;50.904;4.694;2022-12-28T08:25:12;8.60;99.90
8824;DHT22;4448;50.904;4.694;2022-12-28T08:27:38;8.60;99.90
8824;DHT22;4448;50.904;4.694;2022-12-28T08:30:04;8.60;99.90
8824;DHT22;4448;50.904;4.694;2022-12-28T08:32:30;8.60;99.90
8824;DHT22;4448;50.904;4.694;2022-12-28T08:34:55;8.70;99.90
8824;DHT22;4448;50.904;4.694;2022-12-28T08:37:22;8.60;99.90
8824;DHT22;4448;50.904;4.694;2022-12-28T08:39:48;8.50;99.90
8824;DHT22;4448;50.904;4.694;2022-12-28T08:42:14;8.70;99.90
8824;DHT22;4448;50.904;4.694;2022-12-28T08:44:39;8.70;99.90
8824;DHT22;4448;50.904;4.694;2022-12-28T08:47:05;8.80;99.90
8824;DHT22;4448;50.904;4.694;2022-12-28T08:49:31;8.70;99.90
8824;DHT22;4448;50.904;4.694;2022-12-28T08:51:57;8.70;99.90
8824;DHT22;4448;50.904;4.694;2022-12-28T08:54:22;8.70;99.90
8824;DHT22;4448;50.904;4.694;2022-12-28T08:56:48;8.70;99.90
8824;DHT22;4448;50.904;4.694;2022-12-28T08:59:16;8.70;99.90
8824;DHT22;4448;50.904;4.694;2022-12-28T09:01:43;8.80;99.90
8824;DHT22;4448;50.904;4.694;2022-12-28T09:04:20;8.70;99.90
8824;DHT22;4448;50.904;4.694;2022-12-28T09:06:47;8.80;99.90
8824;DHT22;4448;50.904;4.694;2022-12-28T09:09:14;8.80;99.90
8824;DHT22;4448;50.904;4.694;2022-12-28T09:11:44;8.80;99.90
8824;DHT22;4448;50.904;4.694;2022-12-28T09:14:11;8.80;99.90
8824;DHT22;4448;50.904;4.694;2022-12-28T09:16:37;8.80;99.90
8824;DHT22;4448;50.904;4.694;2022-12-28T09:19:06;8.80;99.90
8824;DHT22;4448;50.904;4.694;2022-12-28T09:21:37;8.90;99.90
8824;DHT22;4448;50.904;4.694;2022-12-28T09:24:06;8.90;99.90
8824;DHT22;4448;50.904;4.694;2022-12-28T09:26:37;8.90;99.90
8824;DHT22;4448;50.904;4.694;2022-12-28T09:29:05;8.90;99.90
8824;DHT22;4448;50.904;4.694;2022-12-28T09:31:32;8.90;99.90
8824;DHT22;4448;50.904;4.694;2022-12-28T09:34:04;8.90;99.90
8824;DHT22;4448;50.904;4.694;2022-12-28T09:36:34;8.80;99.90
8824;DHT22;4448;50.904;4.694;2022-12-28T09:39:06;9.00;99.90
8824;DHT22;4448;50.904;4.694;2022-12-28T09:41:50;9.10;99.90
8824;DHT22;4448;50.904;4.694;2022-12-28T09:52:35;8.80;99.90
8824;DHT22;4448;50.904;4.694;2022-12-28T09:55:18;8.90;99.90
8824;DHT22;4448;50.904;4.694;2022-12-28T09:57:49;9.00;99.90
8824;DHT22;4448;50.904;4.694;2022-12-28T10:00:22;8.90;99.90
8824;DHT22;4448;50.904;4.694;2022-12-28T10:02:58;9.00;99.90
8824;DHT22;4448;50.904;4.694;2022-12-28T10:05:25;9.00;99.90
8824;DHT22;4448;50.904;4.694;2022-12-28T10:07:53;9.00;99.90
8824;DHT22;4448;50.904;4.694;2022-12-28T10:10:21;9.00;99.90
8824;DHT22;4448;50.904;4.694;2022-12-28T10:12:48;9.00;99.90
8824;DHT22;4448;50.904;4.694;2022-12-28T10:15:15;9.10;99.90
8824;DHT22;4448;50.904;4.694;2022-12-28T10:17:59;9.10;99.90
8824;DHT22;4448;50.904;4.694;2022-12-28T10:20:25;9.10;99.90
8824;DHT22;4448;50.904;4.694;2022-12-28T10:22:53;9.10;99.90
8824;DHT22;4448;50.904;4.694;2022-12-28T10:25:22;9.10;99.90
8824;DHT22;4448;50.904;4.694;2022-12-28T10:27:48;9.20;99.90
8824;DHT22;4448;50.904;4.694;2022-12-28T10:30:17;9.20;99.90
8824;DHT22;4448;50.904;4.694;2022-12-28T10:33:17;9.20;99.90
8824;DHT22;4448;50.904;4.694;2022-12-28T10:35:51;9.20;99.90
8824;DHT22;4448;50.904;4.694;2022-12-28T10:38:27;9.30;99.90
8824;DHT22;4448;50.904;4.694;2022-12-28T10:41:06;9.30;99.90
8824;DHT22;4448;50.904;4.694;2022-12-28T10:43:36;9.30;99.90
8824;DHT22;4448;50.904;4.694;2022-12-28T10:46:03;9.30;99.90
8824;DHT22;4448;50.904;4.694;2022-12-28T10:48:35;9.30;99.90
8824;DHT22;4448;50.904;4.694;2022-12-28T10:51:12;9.30;99.90
8824;DHT22;4448;50.904;4.694;2022-12-28T10:58:41;9.40;99.90
8824;DHT22;4448;50.904;4.694;2022-12-28T11:04:05;9.40;99.90
8824;DHT22;4448;50.904;4.694;2022-12-28T11:09:33;9.40;99.90
8824;DHT22;4448;50.904;4.694;2022-12-28T11:12:24;9.50;99.90
8824;DHT22;4448;50.904;4.694;2022-12-28T11:15:01;9.40;99.90
8824;DHT22;4448;50.904;4.694;2022-12-28T11:17:27;9.50;99.90
8824;DHT22;4448;50.904;4.694;2022-12-28T11:20:00;9.50;99.90
8824;DHT22;4448;50.904;4.694;2022-12-28T11:22:54;9.50;99.90
8824;DHT22;4448;50.904;4.694;2022-12-28T11:25:25;9.50;99.90
8824;DHT22;4448;50.904;4.694;2022-12-28T11:27:53;9.50;99.90
8824;DHT22;4448;50.904;4.694;2022-12-28T11:30:19;9.60;99.90
8824;DHT22;4448;50.904;4.694;2022-12-28T11:32:52;9.70;99.90
8824;DHT22;4448;50.904;4.694;2022-12-28T11:35:30;9.70;99.90
8824;DHT22;4448;50.904;4.694;2022-12-28T11:38:00;9.70;99.90
8824;DHT22;4448;50.904;4.694;2022-12-28T11:40:48;9.70;99.90
8824;DHT22;4448;50.904;4.694;2022-12-28T11:45:59;9.90;99.90
8824;DHT22;4448;50.904;4.694;2022-12-28T11:51:27;9.90;99.90
8824;DHT22;4448;50.904;4.694;2022-12-28T11:56:24;10.00;99.90
8824;DHT22;4448;50.904;4.694;2022-12-28T12:15:15;10.10;99.90
8824;DHT22;4448;50.904;4.694;2022-12-28T12:18:01;10.00;99.90
8824;DHT22;4448;50.904;4.694;2022-12-28T12:20:52;10.00;99.90
8824;DHT22;4448;50.904;4.694;2022-12-28T12:23:25;10.10;99.90
8824;DHT22;4448;50.904;4.694;2022-12-28T12:25:53;10.10;99.90
8824;DHT22;4448;50.904;4.694;2022-12-28T12:30:58;10.10;99.90
8824;DHT22;4448;50.904;4.694;2022-12-28T12:33:27;10.20;99.90
8824;DHT22;4448;50.904;4.694;2022-12-28T12:52:48;10.40;99.90
8824;DHT22;4448;50.904;4.694;2022-12-28T12:55:57;10.40;99.90
8824;DHT22;4448;50.904;4.694;2022-12-28T13:01:27;10.40;99.90
8824;DHT22;4448;50.904;4.694;2022-12-28T13:03:57;10.50;99.90
8824;DHT22;4448;50.904;4.694;2022-12-28T13:06:27;10.50;99.90
8824;DHT22;4448;50.904;4.694;2022-12-28T13:09:11;10.50;99.90
8824;DHT22;4448;50.904;4.694;2022-12-28T13:11:39;10.50;99.90
8824;DHT22;4448;50.904;4.694;2022-12-28T13:14:19;10.40;99.90
8824;DHT22;4448;50.904;4.694;2022-12-28T13:16:56;10.50;99.90
8824;DHT22;4448;50.904;4.694;2022-12-28T13:19:24;10.60;99.90
8824;DHT22;4448;50.904;4.694;2022-12-28T13:21:51;10.60;99.90
8824;DHT22;4448;50.904;4.694;2022-12-28T13:24:19;10.60;99.90
8824;DHT22;4448;50.904;4.694;2022-12-28T13:26:45;10.60;99.90
8824;DHT22;4448;50.904;4.694;2022-12-28T13:29:16;10.50;99.90
8824;DHT22;4448;50.904;4.694;2022-12-28T13:31:43;10.60;99.90
8824;DHT22;4448;50.904;4.694;2022-12-28T13:34:25;10.70;99.90
8824;DHT22;4448;50.904;4.694;2022-12-28T13:37:00;10.70;99.90
8824;DHT22;4448;50.904;4.694;2022-12-28T13:39:31;10.70;99.90
8824;DHT22;4448;50.904;4.694;2022-12-28T13:42:03;10.70;99.90
8824;DHT22;4448;50.904;4.694;2022-12-28T13:44:33;10.80;99.90
8824;DHT22;4448;50.904;4.694;2022-12-28T13:49:51;10.90;99.90
8824;DHT22;4448;50.904;4.694;2022-12-28T13:52:43;11.00;99.90
8824;DHT22;4448;50.904;4.694;2022-12-28T13:55:15;11.10;99.90
8824;DHT22;4448;50.904;4.694;2022-12-28T13:57:44;11.00;99.90
8824;DHT22;4448;50.904;4.694;2022-12-28T14:00:14;11.00;99.90
8824;DHT22;4448;50.904;4.694;2022-12-28T14:02:40;11.00;99.90
8824;DHT22;4448;50.904;4.694;2022-12-28T14:05:07;11.00;99.90
8824;DHT22;4448;50.904;4.694;2022-12-28T14:07:34;11.00;99.90
8824;DHT22;4448;50.904;4.694;2022-12-28T14:10:01;11.10;99.90
8824;DHT22;4448;50.904;4.694;2022-12-28T14:12:28;11.10;99.90
8824;DHT22;4448;50.904;4.694;2022-12-28T14:14:55;11.10;99.90
8824;DHT22;4448;50.904;4.694;2022-12-28T14:17:22;11.10;99.90
8824;DHT22;4448;50.904;4.694;2022-12-28T14:19:49;11.20;99.90
8824;DHT22;4448;50.904;4.694;2022-12-28T14:22:30;11.20;99.90
8824;DHT22;4448;50.904;4.694;2022-12-28T14:25:12;11.10;99.90
8824;DHT22;4448;50.904;4.694;2022-12-28T14:27:41;11.00;99.90
8824;DHT22;4448;50.904;4.694;2022-12-28T14:30:22;11.00;99.90
8824;DHT22;4448;50.904;4.694;2022-12-28T14:32:48;10.90;99.90
8824;DHT22;4448;50.904;4.694;2022-12-28T14:35:22;11.00;99.90
8824;DHT22;4448;50.904;4.694;2022-12-28T14:37:53;11.00;99.90
8824;DHT22;4448;50.904;4.694;2022-12-28T14:40:29;10.90;99.90
8824;DHT22;4448;50.904;4.694;2022-12-28T14:42:55;10.90;99.90
8824;DHT22;4448;50.904;4.694;2022-12-28T14:45:38;10.90;99.90
8824;DHT22;4448;50.904;4.694;2022-12-28T14:53:43;10.90;99.90
8824;DHT22;4448;50.904;4.694;2022-12-28T14:56:11;10.90;99.90
8824;DHT22;4448;50.904;4.694;2022-12-28T14:58:54;10.90;99.90
8824;DHT22;4448;50.904;4.694;2022-12-28T15:01:21;11.00;99.90
8824;DHT22;4448;50.904;4.694;2022-12-28T15:03:59;10.80;99.90
8824;DHT22;4448;50.904;4.694;2022-12-28T15:06:27;10.70;99.90
8824;DHT22;4448;50.904;4.694;2022-12-28T15:08:55;10.60;99.90
8824;DHT22;4448;50.904;4.694;2022-12-28T15:11:24;10.60;99.90
8824;DHT22;4448;50.904;4.694;2022-12-28T15:13:50;10.50;99.90
8824;DHT22;4448;50.904;4.694;2022-12-28T15:16:18;10.50;99.90
8824;DHT22;4448;50.904;4.694;2022-12-28T15:18:44;10.50;99.90
8824;DHT22;4448;50.904;4.694;2022-12-28T15:21:16;10.50;99.90
8824;DHT22;4448;50.904;4.694;2022-12-28T15:23:43;10.40;99.90
8824;DHT22;4448;50.904;4.694;2022-12-28T15:26:12;10.40;99.90
8824;DHT22;4448;50.904;4.694;2022-12-28T15:28:44;10.40;99.90
8824;DHT22;4448;50.904;4.694;2022-12-28T15:31:15;10.40;99.90
8824;DHT22;4448;50.904;4.694;2022-12-28T15:33:47;10.40;99.90
8824;DHT22;4448;50.904;4.694;2022-12-28T15:36:18;10.40;99.90
8824;DHT22;4448;50.904;4.694;2022-12-28T15:38:46;10.30;99.90
8824;DHT22;4448;50.904;4.694;2022-12-28T15:41:23;10.30;99.90
8824;DHT22;4448;50.904;4.694;2022-12-28T15:44:08;10.30;99.90
8824;DHT22;4448;50.904;4.694;2022-12-28T15:46:39;10.30;99.90
8824;DHT22;4448;50.904;4.694;2022-12-28T15:49:14;10.30;99.90
8824;DHT22;4448;50.904;4.694;2022-12-28T15:51:40;10.20;99.90
8824;DHT22;4448;50.904;4.694;2022-12-28T15:54:07;10.20;99.90
8824;DHT22;4448;50.904;4.694;2022-12-28T15:56:34;10.10;99.90
8824;DHT22;4448;50.904;4.694;2022-12-28T15:59:02;10.00;99.90
8824;DHT22;4448;50.904;4.694;2022-12-28T16:01:29;10.00;99.90
8824;DHT22;4448;50.904;4.694;2022-12-28T16:03:57;10.00;99.90
8824;DHT22;4448;50.904;4.694;2022-12-28T16:06:23;10.00;99.90
8824;DHT22;4448;50.904;4.694;2022-12-28T16:08:54;10.00;99.90
8824;DHT22;4448;50.904;4.694;2022-12-28T16:11:20;10.00;99.90
8824;DHT22;4448;50.904;4.694;2022-12-28T16:14:00;10.00;99.90
8824;DHT22;4448;50.904;4.694;2022-12-28T16:16:30;10.00;99.90
8824;DHT22;4448;50.904;4.694;2022-12-28T16:18:56;10.00;99.90
8824;DHT22;4448;50.904;4.694;2022-12-28T16:21:23;10.00;99.90
8824;DHT22;4448;50.904;4.694;2022-12-28T16:23:49;10.00;99.90
8824;DHT22;4448;50.904;4.694;2022-12-28T16:26:15;10.00;99.90
8824;DHT22;4448;50.904;4.694;2022-12-28T16:28:42;10.00;99.90
8824;DHT22;4448;50.904;4.694;2022-12-28T16:31:28;9.90;99.90
8824;DHT22;4448;50.904;4.694;2022-12-28T16:33:57;9.90;99.90
8824;DHT22;4448;50.904;4.694;2022-12-28T16:36:23;9.80;99.90
8824;DHT22;4448;50.904;4.694;2022-12-28T16:38:49;9.80;99.90
8824;DHT22;4448;50.904;4.694;2022-12-28T16:41:15;9.80;99.90
8824;DHT22;4448;50.904;4.694;2022-12-28T16:43:43;9.80;99.90
8824;DHT22;4448;50.904;4.694;2022-12-28T16:46:09;9.70;99.90
8824;DHT22;4448;50.904;4.694;2022-12-28T16:48:36;9.70;99.90
8824;DHT22;4448;50.904;4.694;2022-12-28T16:51:02;9.60;99.90
8824;DHT22;4448;50.904;4.694;2022-12-28T16:53:28;9.70;99.90
8824;DHT22;4448;50.904;4.694;2022-12-28T16:55:54;9.60;99.90
8824;DHT22;4448;50.904;4.694;2022-12-28T16:58:23;9.60;99.90
8824;DHT22;4448;50.904;4.694;2022-12-28T17:00:49;9.50;99.90
8824;DHT22;4448;50.904;4.694;2022-12-28T17:03:15;9.50;99.90
8824;DHT22;4448;50.904;4.694;2022-12-28T17:05:40;9.40;99.90
8824;DHT22;4448;50.904;4.694;2022-12-28T17:08:06;9.40;99.90
8824;DHT22;4448;50.904;4.694;2022-12-28T17:10:33;9.40;99.90
8824;DHT22;4448;50.904;4.694;2022-12-28T17:12:58;9.30;99.90
8824;DHT22;4448;50.904;4.694;2022-12-28T17:15:24;9.30;99.90
8824;DHT22;4448;50.904;4.694;2022-12-28T17:17:50;9.40;99.90
8824;DHT22;4448;50.904;4.694;2022-12-28T17:20:16;9.20;99.90
8824;DHT22;4448;50.904;4.694;2022-12-28T17:22:42;9.30;99.90
8824;DHT22;4448;50.904;4.694;2022-12-28T17:25:08;9.40;99.90
8824;DHT22;4448;50.904;4.694;2022-12-28T17:27:34;9.40;99.90
8824;DHT22;4448;50.904;4.694;2022-12-28T17:30:00;9.20;99.90
8824;DHT22;4448;50.904;4.694;2022-12-28T17:32:26;9.40;99.90
8824;DHT22;4448;50.904;4.694;2022-12-28T17:34:52;9.40;99.90
8824;DHT22;4448;50.904;4.694;2022-12-28T17:37:18;9.40;99.90
8824;DHT22;4448;50.904;4.694;2022-12-28T17:39:43;9.40;99.90
8824;DHT22;4448;50.904;4.694;2022-12-28T17:42:09;9.40;99.90
8824;DHT22;4448;50.904;4.694;2022-12-28T17:44:36;9.40;99.90
8824;DHT22;4448;50.904;4.694;2022-12-28T17:47:02;9.50;99.90
8824;DHT22;4448;50.904;4.694;2022-12-28T17:49:27;9.50;99.90
8824;DHT22;4448;50.904;4.694;2022-12-28T17:51:53;9.50;99.90
8824;DHT22;4448;50.904;4.694;2022-12-28T17:54:19;9.40;99.90
8824;DHT22;4448;50.904;4.694;2022-12-28T17:56:46;9.40;99.90
8824;DHT22;4448;50.904;4.694;2022-12-28T17:59:13;9.40;99.90
8824;DHT22;4448;50.904;4.694;2022-12-28T18:01:40;9.50;99.90
8824;DHT22;4448;50.904;4.694;2022-12-28T18:04:08;9.50;99.90
8824;DHT22;4448;50.904;4.694;2022-12-28T18:06:34;9.50;99.90
8824;DHT22;4448;50.904;4.694;2022-12-28T18:09:00;9.60;99.90
8824;DHT22;4448;50.904;4.694;2022-12-28T18:11:25;9.50;99.90
8824;DHT22;4448;50.904;4.694;2022-12-28T18:13:51;9.60;99.90
8824;DHT22;4448;50.904;4.694;2022-12-28T18:16:21;9.60;99.90
8824;DHT22;4448;50.904;4.694;2022-12-28T18:18:47;9.60;99.90
8824;DHT22;4448;50.904;4.694;2022-12-28T18:21:15;9.60;99.90
8824;DHT22;4448;50.904;4.694;2022-12-28T18:23:46;9.50;99.90
8824;DHT22;4448;50.904;4.694;2022-12-28T18:26:20;9.60;99.90